Time;durP1;ratioP1;P1;durP2;ratioP2;P2;SDS_P1;SDS_P2;PMS_P1;PMS_P2;Temp;Humidity;BMP_temperature;BMP_pressure;BME280_temperature;BME280_humidity;BME280_pressure;Samples;Min_cycle;Max_cycle;Signal;HPM_P1;HPM_P2
2022/10/29 00:05:57;;;;;;;;;;;16.90;99.90;;;;;;12556889;28;19925;-38
2022/10/29 00:11:59;;;;;;;;;;;16.80;99.90;;;;;;12560540;28;19924;-39
2022/10/29 00:18:01;;;;;;;;;;;16.80;99.90;;;;;;12558319;28;19959;-39
2022/10/29 00:24:02;;;;;;;;;;;16.80;99.90;;;;;;12560860;28;19928;-39
2022/10/29 00:30:04;;;;;;;;;;;16.70;99.90;;;;;;12542405;28;19932;-39
2022/10/29 00:36:08;;;;;;;;;;;16.70;99.90;;;;;;12532567;28;20281;-38
2022/10/29 00:42:14;;;;;;;;;;;16.70;99.90;;;;;;12539857;28;19940;-39
2022/10/29 00:48:16;;;;;;;;;;;16.80;99.90;;;;;;12550824;28;19932;-38
2022/10/29 00:54:18;;;;;;;;;;;16.70;99.90;;;;;;12544072;28;19925;-38
2022/10/29 01:00:20;;;;;;;;;;;16.60;99.90;;;;;;12555137;28;20397;-39
2022/10/29 01:06:23;;;;;;;;;;;16.50;99.90;;;;;;12545625;28;20418;-39
2022/10/29 01:12:40;;;;;;;;;;;16.40;99.90;;;;;;12538550;28;20376;-39
2022/10/29 01:18:58;;;;;;;;;;;16.40;99.90;;;;;;12529697;28;20421;-38
2022/10/29 01:25:29;;;;;;;;;;;16.40;99.90;;;;;;12550228;28;20443;-39
2022/10/29 01:31:46;;;;;;;;;;;16.30;99.90;;;;;;12496800;28;20384;-38
2022/10/29 01:37:48;;;;;;;;;;;16.30;99.90;;;;;;12560820;28;19953;-38
2022/10/29 01:44:04;;;;;;;;;;;16.30;99.90;;;;;;12555102;28;19929;-38
2022/10/29 01:50:08;;;;;;;;;;;16.30;99.90;;;;;;12554463;28;19933;-39
2022/10/29 01:56:09;;;;;;;;;;;16.20;99.90;;;;;;12507689;28;19924;-38
2022/10/29 02:02:11;;;;;;;;;;;16.20;99.90;;;;;;12539197;28;21073;-38
2022/10/29 02:08:31;;;;;;;;;;;16.10;99.90;;;;;;12560564;28;19928;-38
2022/10/29 02:14:45;;;;;;;;;;;16.00;99.90;;;;;;12545871;28;19950;-38
2022/10/29 02:20:46;;;;;;;;;;;15.90;99.90;;;;;;12539207;28;19924;-38
2022/10/29 02:26:48;;;;;;;;;;;15.90;99.90;;;;;;12545506;28;19925;-38
2022/10/29 02:32:50;;;;;;;;;;;15.70;99.90;;;;;;12551250;28;19935;-39
2022/10/29 02:38:51;;;;;;;;;;;15.70;99.90;;;;;;12535496;28;19925;-38
2022/10/29 02:44:53;;;;;;;;;;;15.70;99.90;;;;;;12547273;28;19925;-38
2022/10/29 02:50:55;;;;;;;;;;;15.70;99.90;;;;;;12554854;28;19929;-38
2022/10/29 02:56:56;;;;;;;;;;;15.80;99.90;;;;;;12551848;28;20288;-38
2022/10/29 03:02:58;;;;;;;;;;;15.80;99.90;;;;;;12533676;28;19933;-38
2022/10/29 03:09:01;;;;;;;;;;;15.80;99.90;;;;;;12534539;28;20395;-39
2022/10/29 03:15:02;;;;;;;;;;;15.90;99.90;;;;;;12545288;28;20373;-38
2022/10/29 03:21:04;;;;;;;;;;;15.90;99.90;;;;;;12548093;28;19939;-38
2022/10/29 03:27:06;;;;;;;;;;;15.70;99.90;;;;;;12539043;28;20346;-38
2022/10/29 03:33:08;;;;;;;;;;;15.70;99.90;;;;;;12564926;28;19924;-38
2022/10/29 03:39:09;;;;;;;;;;;15.70;99.90;;;;;;12556279;28;19932;-39
2022/10/29 03:45:11;;;;;;;;;;;15.70;99.90;;;;;;12546670;28;19931;-39
2022/10/29 03:51:13;;;;;;;;;;;15.60;99.90;;;;;;12540658;28;20019;-39
2022/10/29 03:57:14;;;;;;;;;;;15.50;99.90;;;;;;12540594;28;19952;-39
2022/10/29 04:03:16;;;;;;;;;;;15.50;99.90;;;;;;12543752;28;19925;-39
2022/10/29 04:09:18;;;;;;;;;;;15.40;99.90;;;;;;12541407;28;19937;-38
2022/10/29 04:15:19;;;;;;;;;;;15.50;99.90;;;;;;12546202;28;19929;-38
2022/10/29 04:21:21;;;;;;;;;;;15.50;99.90;;;;;;12548272;28;19925;-38
2022/10/29 04:27:43;;;;;;;;;;;15.50;99.90;;;;;;12540978;28;19929;-39
2022/10/29 04:34:05;;;;;;;;;;;15.50;99.90;;;;;;12552859;28;19928;-38
2022/10/29 04:40:07;;;;;;;;;;;15.50;99.90;;;;;;12546994;28;19929;-38
2022/10/29 04:46:09;;;;;;;;;;;15.50;99.90;;;;;;12502746;28;19929;-39
2022/10/29 04:52:10;;;;;;;;;;;15.50;99.90;;;;;;12542005;28;19933;-39
2022/10/29 04:58:13;;;;;;;;;;;15.50;99.90;;;;;;12553290;28;19925;-38
2022/10/29 05:04:15;;;;;;;;;;;15.40;99.90;;;;;;12554654;28;20301;-39
2022/10/29 05:10:17;;;;;;;;;;;15.40;99.90;;;;;;12556732;28;20010;-40
2022/10/29 05:16:18;;;;;;;;;;;15.40;99.90;;;;;;12554217;28;20380;-39
2022/10/29 05:22:20;;;;;;;;;;;15.40;99.90;;;;;;12561709;28;19932;-38
2022/10/29 05:28:22;;;;;;;;;;;15.50;99.90;;;;;;12567546;28;19999;-39
2022/10/29 05:34:24;;;;;;;;;;;15.40;99.90;;;;;;12550340;28;19925;-39
2022/10/29 05:40:26;;;;;;;;;;;15.40;99.90;;;;;;12546062;28;19929;-39
2022/10/29 05:46:28;;;;;;;;;;;15.40;99.90;;;;;;12551520;28;20292;-39
2022/10/29 05:52:29;;;;;;;;;;;15.50;99.90;;;;;;12532942;28;20019;-38
2022/10/29 05:58:31;;;;;;;;;;;15.70;99.90;;;;;;12547453;28;19935;-39
2022/10/29 06:04:33;;;;;;;;;;;15.60;99.90;;;;;;12553117;28;20267;-39
2022/10/29 06:10:35;;;;;;;;;;;15.40;99.90;;;;;;12552112;28;19924;-38
2022/10/29 06:16:37;;;;;;;;;;;15.30;99.90;;;;;;12523978;28;19936;-38
2022/10/29 06:22:39;;;;;;;;;;;15.40;99.90;;;;;;12550744;28;19925;-38
2022/10/29 06:28:40;;;;;;;;;;;15.30;99.90;;;;;;12545011;28;19928;-39
2022/10/29 06:34:42;;;;;;;;;;;15.20;99.90;;;;;;12551036;28;20297;-39
2022/10/29 06:40:50;;;;;;;;;;;15.30;99.90;;;;;;12551139;28;19932;-39
2022/10/29 06:46:52;;;;;;;;;;;15.30;99.90;;;;;;12532840;28;19964;-39
2022/10/29 06:52:57;;;;;;;;;;;15.30;99.90;;;;;;12545410;28;19928;-39
2022/10/29 06:59:00;;;;;;;;;;;15.10;99.90;;;;;;12534459;28;20024;-40
2022/10/29 07:05:01;;;;;;;;;;;15.10;99.90;;;;;;12535339;28;19928;-38
2022/10/29 07:11:04;;;;;;;;;;;15.20;99.90;;;;;;12541485;28;19925;-38
2022/10/29 07:17:05;;;;;;;;;;;15.00;99.90;;;;;;12542378;28;19975;-38
2022/10/29 07:23:08;;;;;;;;;;;15.30;99.90;;;;;;12551411;28;19932;-38
2022/10/29 07:29:10;;;;;;;;;;;15.30;99.90;;;;;;12547360;28;20331;-38
2022/10/29 07:35:11;;;;;;;;;;;15.30;99.90;;;;;;12526049;28;19928;-39
2022/10/29 07:41:13;;;;;;;;;;;15.40;99.90;;;;;;12552063;28;19933;-39
2022/10/29 07:47:15;;;;;;;;;;;15.20;99.90;;;;;;12550674;28;19925;-38
2022/10/29 07:53:16;;;;;;;;;;;15.30;99.90;;;;;;12550600;28;19924;-38
2022/10/29 07:59:18;;;;;;;;;;;15.40;99.90;;;;;;12541859;28;19932;-39
2022/10/29 08:05:20;;;;;;;;;;;15.60;99.90;;;;;;12555534;28;19929;-39
2022/10/29 08:11:22;;;;;;;;;;;15.80;99.90;;;;;;12554455;28;20040;-38
2022/10/29 08:17:24;;;;;;;;;;;15.90;99.90;;;;;;12555365;28;20019;-39
2022/10/29 08:23:25;;;;;;;;;;;16.00;99.90;;;;;;12556285;28;19932;-38
2022/10/29 08:29:27;;;;;;;;;;;16.10;99.90;;;;;;12547434;28;19929;-40
2022/10/29 08:35:30;;;;;;;;;;;16.00;99.90;;;;;;12552021;28;19970;-39
2022/10/29 08:41:50;;;;;;;;;;;15.90;99.90;;;;;;12551534;28;19943;-39
2022/10/29 08:47:52;;;;;;;;;;;16.10;99.90;;;;;;12550533;28;19929;-39
2022/10/29 08:54:00;;;;;;;;;;;16.10;99.90;;;;;;12555858;28;20300;-39
2022/10/29 09:00:30;;;;;;;;;;;16.10;99.90;;;;;;12555537;28;20936;-38
2022/10/29 09:06:51;;;;;;;;;;;16.20;99.90;;;;;;12550269;28;19929;-39
2022/10/29 09:13:11;;;;;;;;;;;16.20;99.90;;;;;;12545479;28;19940;-38
2022/10/29 09:19:16;;;;;;;;;;;16.20;99.90;;;;;;12539047;28;19967;-39
2022/10/29 09:25:29;;;;;;;;;;;16.10;99.90;;;;;;12552067;28;19962;-39
2022/10/29 09:31:41;;;;;;;;;;;16.20;99.90;;;;;;12557500;28;20042;-39
2022/10/29 09:37:54;;;;;;;;;;;16.40;99.90;;;;;;12541593;28;19932;-40
2022/10/29 09:44:09;;;;;;;;;;;16.70;99.90;;;;;;12552313;28;19935;-39
2022/10/29 09:50:20;;;;;;;;;;;17.10;99.90;;;;;;12547101;28;20295;-39
2022/10/29 09:56:22;;;;;;;;;;;17.20;99.90;;;;;;12541067;28;19932;-40
2022/10/29 10:02:37;;;;;;;;;;;17.30;99.90;;;;;;12549867;28;20407;-39
2022/10/29 10:08:57;;;;;;;;;;;17.40;99.90;;;;;;12533740;28;19929;-38
2022/10/29 10:15:14;;;;;;;;;;;17.50;99.90;;;;;;12546803;28;19925;-40
2022/10/29 10:21:29;;;;;;;;;;;17.90;99.90;;;;;;12540698;28;19925;-38
2022/10/29 10:27:31;;;;;;;;;;;18.30;99.90;;;;;;12541674;28;20658;-39
2022/10/29 10:33:34;;;;;;;;;;;18.60;99.90;;;;;;12555383;28;19928;-39
2022/10/29 10:39:43;;;;;;;;;;;19.00;99.90;;;;;;12538490;28;19931;-39
2022/10/29 10:45:51;;;;;;;;;;;19.00;99.90;;;;;;12542865;28;19925;-40
2022/10/29 10:51:53;;;;;;;;;;;19.50;99.90;;;;;;12544006;28;19963;-39
2022/10/29 10:58:04;;;;;;;;;;;19.50;99.90;;;;;;12529055;28;19953;-38
2022/10/29 11:04:17;;;;;;;;;;;19.40;99.90;;;;;;12545605;28;20308;-38
2022/10/29 11:10:21;;;;;;;;;;;19.70;99.90;;;;;;12554891;28;19925;-39
2022/10/29 11:16:41;;;;;;;;;;;19.80;99.90;;;;;;12539365;28;19928;-39
2022/10/29 11:22:48;;;;;;;;;;;20.00;99.90;;;;;;12544948;28;19948;-39
2022/10/29 11:28:55;;;;;;;;;;;20.30;99.90;;;;;;12543560;28;20020;-39
2022/10/29 11:35:07;;;;;;;;;;;20.50;99.90;;;;;;12537666;28;19924;-39
2022/10/29 11:41:09;;;;;;;;;;;20.60;99.90;;;;;;12551999;28;19958;-38
2022/10/29 11:47:17;;;;;;;;;;;21.00;99.90;;;;;;12554751;28;20385;-39
2022/10/29 11:53:37;;;;;;;;;;;21.20;99.90;;;;;;12526318;28;19936;-39
2022/10/29 11:59:39;;;;;;;;;;;20.90;99.90;;;;;;12540008;28;19924;-40
2022/10/29 12:05:53;;;;;;;;;;;21.10;99.90;;;;;;12530004;28;19925;-39
2022/10/29 12:11:59;;;;;;;;;;;21.30;99.90;;;;;;12541133;28;19928;-39
2022/10/29 12:18:19;;;;;;;;;;;21.30;99.90;;;;;;12551246;28;19948;-39
2022/10/29 12:24:44;;;;;;;;;;;21.50;99.90;;;;;;12544440;28;19931;-39
2022/10/29 12:31:06;;;;;;;;;;;21.50;99.90;;;;;;12546129;28;19928;-40
2022/10/29 12:37:14;;;;;;;;;;;21.60;99.90;;;;;;12502418;28;19925;-39
2022/10/29 12:43:26;;;;;;;;;;;21.20;99.90;;;;;;12534705;28;20031;-39
2022/10/29 12:49:30;;;;;;;;;;;20.80;99.90;;;;;;12542503;28;19924;-40
2022/10/29 12:55:33;;;;;;;;;;;20.50;99.90;;;;;;12542805;28;20412;-41
2022/10/29 13:01:37;;;;;;;;;;;20.30;99.90;;;;;;12560035;28;19928;-39
2022/10/29 13:08:01;;;;;;;;;;;20.30;99.90;;;;;;12559375;28;19925;-38
2022/10/29 13:14:03;;;;;;;;;;;20.20;99.90;;;;;;12556830;28;19935;-39
2022/10/29 13:20:24;;;;;;;;;;;20.30;99.90;;;;;;12551328;28;19925;-39
2022/10/29 13:26:55;;;;;;;;;;;20.90;99.90;;;;;;12510097;28;20292;-40
2022/10/29 13:32:56;;;;;;;;;;;20.80;99.90;;;;;;12533646;28;19932;-40
2022/10/29 13:39:02;;;;;;;;;;;20.90;99.90;;;;;;12546161;28;20388;-39
2022/10/29 13:45:12;;;;;;;;;;;20.70;99.90;;;;;;12527937;28;19931;-39
2022/10/29 13:51:17;;;;;;;;;;;20.50;99.90;;;;;;12519356;28;19925;-40
2022/10/29 13:57:19;;;;;;;;;;;20.20;99.90;;;;;;12544963;28;19928;-39
2022/10/29 14:03:28;;;;;;;;;;;20.10;99.90;;;;;;12550976;28;19925;-40
2022/10/29 14:09:30;;;;;;;;;;;20.00;99.90;;;;;;12533086;28;19925;-39
2022/10/29 14:15:33;;;;;;;;;;;20.10;99.90;;;;;;12547232;28;19924;-39
2022/10/29 14:21:38;;;;;;;;;;;20.10;99.90;;;;;;12543155;28;19925;-39
2022/10/29 14:27:40;;;;;;;;;;;20.00;99.90;;;;;;12550116;28;19967;-39
2022/10/29 14:33:42;;;;;;;;;;;20.10;99.90;;;;;;12552475;28;20317;-39
2022/10/29 14:39:55;;;;;;;;;;;20.00;99.90;;;;;;12550506;28;19929;-39
2022/10/29 14:46:10;;;;;;;;;;;19.90;99.90;;;;;;12547032;28;19968;-39
2022/10/29 14:52:22;;;;;;;;;;;19.90;99.90;;;;;;12542672;28;20012;-39
2022/10/29 14:58:31;;;;;;;;;;;20.00;99.90;;;;;;12545442;28;19933;-39
2022/10/29 15:04:33;;;;;;;;;;;19.90;99.90;;;;;;12545721;28;19932;-39
2022/10/29 15:10:44;;;;;;;;;;;19.80;99.90;;;;;;12552959;28;19970;-40
2022/10/29 15:16:46;;;;;;;;;;;19.70;99.90;;;;;;12554296;28;19929;-39
2022/10/29 15:22:51;;;;;;;;;;;19.60;99.90;;;;;;12540970;28;19928;-39
2022/10/29 15:28:54;;;;;;;;;;;19.50;99.90;;;;;;12541040;28;19929;-39
2022/10/29 15:34:57;;;;;;;;;;;19.40;99.90;;;;;;12551978;28;19925;-39
2022/10/29 15:41:18;;;;;;;;;;;19.30;99.90;;;;;;12528651;28;20016;-39
2022/10/29 15:47:25;;;;;;;;;;;19.20;99.90;;;;;;12548873;28;19935;-40
2022/10/29 15:53:26;;;;;;;;;;;19.00;99.90;;;;;;12549828;28;19928;-39
2022/10/29 15:59:28;;;;;;;;;;;18.90;99.90;;;;;;12551446;28;20774;-39
2022/10/29 16:05:30;;;;;;;;;;;18.70;99.90;;;;;;12545760;28;19975;-39
2022/10/29 16:11:33;;;;;;;;;;;18.50;99.90;;;;;;12549796;28;19929;-40
2022/10/29 16:17:34;;;;;;;;;;;18.40;99.90;;;;;;12539539;28;19943;-39
2022/10/29 16:23:37;;;;;;;;;;;18.40;99.90;;;;;;12546221;28;19924;-39
2022/10/29 16:29:39;;;;;;;;;;;18.50;99.90;;;;;;12551871;28;19978;-39
2022/10/29 16:35:41;;;;;;;;;;;18.50;99.90;;;;;;12549981;28;19978;-39
2022/10/29 16:41:42;;;;;;;;;;;18.50;99.90;;;;;;12545825;28;20372;-39
2022/10/29 16:47:44;;;;;;;;;;;18.50;99.90;;;;;;12552893;28;19929;-39
2022/10/29 16:53:46;;;;;;;;;;;18.60;99.90;;;;;;12546935;28;19925;-39
2022/10/29 16:59:48;;;;;;;;;;;18.60;99.90;;;;;;12558344;28;19978;-39
2022/10/29 17:05:50;;;;;;;;;;;18.70;99.90;;;;;;12549895;28;19932;-39
2022/10/29 17:11:51;;;;;;;;;;;18.60;99.90;;;;;;12567392;28;19924;-39
2022/10/29 17:17:53;;;;;;;;;;;18.70;99.90;;;;;;12557845;28;19936;-38
2022/10/29 17:23:55;;;;;;;;;;;18.80;99.90;;;;;;12548874;28;20435;-39
2022/10/29 17:29:56;;;;;;;;;;;18.80;99.90;;;;;;12558158;28;19971;-40
2022/10/29 17:36:02;;;;;;;;;;;18.70;99.90;;;;;;12533844;28;20055;-39
2022/10/29 17:42:04;;;;;;;;;;;18.60;99.90;;;;;;12548724;28;19999;-39
2022/10/29 17:48:06;;;;;;;;;;;18.50;99.90;;;;;;12558999;28;19936;-38
2022/10/29 17:54:08;;;;;;;;;;;18.40;99.90;;;;;;12554430;28;20288;-39
2022/10/29 18:00:10;;;;;;;;;;;18.10;99.90;;;;;;12546698;28;19925;-39
2022/10/29 18:06:12;;;;;;;;;;;17.80;99.90;;;;;;12560555;28;19931;-39
2022/10/29 18:12:14;;;;;;;;;;;17.90;99.90;;;;;;12554241;28;19940;-40
2022/10/29 18:18:15;;;;;;;;;;;18.00;99.90;;;;;;12558164;28;20057;-39
2022/10/29 18:24:18;;;;;;;;;;;18.10;99.90;;;;;;12533261;28;20394;-39
2022/10/29 18:30:21;;;;;;;;;;;18.00;99.90;;;;;;12545917;28;19929;-39
2022/10/29 18:36:23;;;;;;;;;;;17.80;99.90;;;;;;12546957;28;19929;-39
2022/10/29 18:42:25;;;;;;;;;;;17.70;99.90;;;;;;12543883;28;19928;-39
2022/10/29 18:48:27;;;;;;;;;;;17.50;99.90;;;;;;12524205;28;19928;-39
2022/10/29 18:54:34;;;;;;;;;;;17.30;99.90;;;;;;12530161;28;19928;-39
2022/10/29 19:00:35;;;;;;;;;;;17.20;99.90;;;;;;12520376;28;20011;-39
2022/10/29 19:06:37;;;;;;;;;;;17.00;99.90;;;;;;12533810;28;19932;-39
2022/10/29 19:12:39;;;;;;;;;;;16.90;99.90;;;;;;12529062;28;19940;-38
2022/10/29 19:18:41;;;;;;;;;;;16.70;99.90;;;;;;12530636;28;19924;-39
2022/10/29 19:24:42;;;;;;;;;;;16.80;99.90;;;;;;12529227;28;19929;-39
2022/10/29 19:30:44;;;;;;;;;;;16.70;99.90;;;;;;12524918;28;19975;-39
2022/10/29 19:36:46;;;;;;;;;;;16.60;99.90;;;;;;12564481;28;20296;-38
2022/10/29 19:42:48;;;;;;;;;;;16.40;99.90;;;;;;12577469;28;19947;-38
2022/10/29 19:48:50;;;;;;;;;;;16.40;99.90;;;;;;12582383;28;19924;-39
2022/10/29 19:54:52;;;;;;;;;;;16.30;99.90;;;;;;12577883;28;19928;-39
2022/10/29 20:01:01;;;;;;;;;;;16.50;99.90;;;;;;12575290;28;20034;-38
2022/10/29 20:07:03;;;;;;;;;;;16.60;99.90;;;;;;12589672;28;19967;-39
2022/10/29 20:13:05;;;;;;;;;;;16.30;99.90;;;;;;12589476;28;19929;-39
2022/10/29 20:19:07;;;;;;;;;;;16.10;99.90;;;;;;12585094;28;19932;-38
2022/10/29 20:25:09;;;;;;;;;;;15.90;99.90;;;;;;12583669;28;19925;-39
2022/10/29 20:31:12;;;;;;;;;;;16.00;99.90;;;;;;12570217;28;19932;-38
2022/10/29 20:37:14;;;;;;;;;;;16.10;99.90;;;;;;12588496;28;20315;-39
2022/10/29 20:43:16;;;;;;;;;;;16.40;99.90;;;;;;12583098;28;19925;-39
2022/10/29 20:49:18;;;;;;;;;;;16.50;99.90;;;;;;12584364;28;19928;-39
2022/10/29 20:55:19;;;;;;;;;;;16.50;99.90;;;;;;12587572;28;19944;-38
2022/10/29 21:01:22;;;;;;;;;;;16.50;99.90;;;;;;12569897;28;19931;-39
2022/10/29 21:07:24;;;;;;;;;;;16.50;99.90;;;;;;12567808;28;19932;-39
2022/10/29 21:13:27;;;;;;;;;;;16.50;99.90;;;;;;12588906;28;20281;-38
2022/10/29 21:19:28;;;;;;;;;;;16.30;99.90;;;;;;12581081;28;19924;-39
2022/10/29 21:25:30;;;;;;;;;;;16.30;99.90;;;;;;12587413;28;19924;-39
2022/10/29 21:31:32;;;;;;;;;;;16.20;99.90;;;;;;12577400;28;19928;-38
2022/10/29 21:37:33;;;;;;;;;;;16.10;99.90;;;;;;12585882;28;19969;-39
2022/10/29 21:43:36;;;;;;;;;;;16.20;99.90;;;;;;12581744;28;19932;-39
2022/10/29 21:49:37;;;;;;;;;;;16.10;99.90;;;;;;12579193;28;19947;-38
2022/10/29 21:55:39;;;;;;;;;;;15.90;99.90;;;;;;12568161;28;19933;-38
2022/10/29 22:01:41;;;;;;;;;;;15.90;99.90;;;;;;12576605;28;19931;-38
2022/10/29 22:07:43;;;;;;;;;;;15.80;99.90;;;;;;12581099;28;19925;-40
2022/10/29 22:13:45;;;;;;;;;;;15.60;99.90;;;;;;12591677;28;19928;-39
2022/10/29 22:19:46;;;;;;;;;;;15.70;99.90;;;;;;12575862;28;19936;-38
2022/10/29 22:25:49;;;;;;;;;;;15.70;99.90;;;;;;12581213;28;19932;-38
2022/10/29 22:31:51;;;;;;;;;;;15.90;99.90;;;;;;12577157;28;20300;-38
2022/10/29 22:37:53;;;;;;;;;;;15.60;99.90;;;;;;12571440;28;20388;-40
2022/10/29 22:43:57;;;;;;;;;;;15.60;99.90;;;;;;12572617;28;19933;-39
2022/10/29 22:49:59;;;;;;;;;;;15.50;99.90;;;;;;12574540;28;20512;-38
2022/10/29 22:56:01;;;;;;;;;;;15.50;99.90;;;;;;12578725;28;19955;-39
2022/10/29 23:02:03;;;;;;;;;;;15.60;99.90;;;;;;12572592;28;20353;-38
2022/10/29 23:08:05;;;;;;;;;;;15.50;99.90;;;;;;12581707;28;19979;-39
2022/10/29 23:14:07;;;;;;;;;;;15.60;99.90;;;;;;12583572;28;20388;-39
2022/10/29 23:20:08;;;;;;;;;;;15.50;99.90;;;;;;12574927;28;19924;-39
2022/10/29 23:26:11;;;;;;;;;;;15.50;99.90;;;;;;12571762;28;19925;-39
2022/10/29 23:32:12;;;;;;;;;;;15.50;99.90;;;;;;12571936;28;19935;-39
2022/10/29 23:38:15;;;;;;;;;;;15.50;99.90;;;;;;12570950;28;20292;-39
2022/10/29 23:44:16;;;;;;;;;;;15.50;99.90;;;;;;12569425;28;21155;-39
2022/10/29 23:50:18;;;;;;;;;;;15.50;99.90;;;;;;12578415;28;19935;-40
2022/10/29 23:56:20;;;;;;;;;;;15.40;99.90;;;;;;12578165;28;20038;-39
